createdAt,value
2022-10-03T00:02:29.913Z,98632.88
2022-10-03T00:07:50.762Z,98643.91
2022-10-03T00:13:21.439Z,98644.75
2022-10-03T00:18:38.714Z,98645.97
2022-10-03T00:23:50.977Z,98646.63
2022-10-03T00:29:09.620Z,98635.88
2022-10-03T00:34:26.403Z,98628.22
2022-10-03T00:39:45.294Z,98635.56
2022-10-03T00:45:19.459Z,98634.50
2022-10-03T00:50:53.801Z,98631.03
2022-10-03T00:56:09.075Z,98626.94
2022-10-03T01:01:25.072Z,98622.94
2022-10-03T01:06:38.855Z,98629.13
2022-10-03T01:12:01.763Z,98618.50
2022-10-03T01:17:15.630Z,98624.81
2022-10-03T01:22:46.845Z,98606.75
2022-10-03T01:28:18.462Z,98618.25
2022-10-03T01:33:29.488Z,98602.41
2022-10-03T01:38:43.320Z,98590.88
2022-10-03T01:43:53.007Z,98595.13
2022-10-03T01:49:10.160Z,98588.38
2022-10-03T01:54:21.637Z,98579.09
2022-10-03T01:59:37.424Z,98582.44
2022-10-03T02:04:53.214Z,98583.56
2022-10-03T02:10:08.619Z,98585.16
2022-10-03T02:15:20.385Z,98595.16
2022-10-03T02:20:35.807Z,98610.84
2022-10-03T02:26:00.164Z,98612.75
2022-10-03T02:31:47.632Z,98615.50
2022-10-03T02:37:19.439Z,98612.31
2022-10-03T02:42:56.432Z,98618.28
2022-10-03T02:48:39.823Z,98620.59
2022-10-03T02:54:20.370Z,98619.47
2022-10-03T03:00:09.461Z,98616.78
2022-10-03T03:05:26.447Z,98603.88
2022-10-03T03:11:18.822Z,98595.50
2022-10-03T03:17:00.860Z,98606.53
2022-10-03T03:22:20.275Z,98609.00
2022-10-03T03:27:41.485Z,98603.53
2022-10-03T03:32:59.106Z,98606.00
2022-10-03T03:38:16.861Z,98601.53
2022-10-03T03:43:34.544Z,98600.69
2022-10-03T03:49:02.257Z,98593.72
2022-10-03T03:54:30.154Z,98588.69
2022-10-03T04:00:01.312Z,98584.06
2022-10-03T04:05:18.859Z,98587.25
2022-10-03T04:10:38.913Z,98593.66
2022-10-03T04:15:59.749Z,98598.78
2022-10-03T04:21:21.015Z,98595.41
2022-10-03T04:26:38.846Z,98593.63
2022-10-03T04:31:57.316Z,98597.03
2022-10-03T04:37:16.268Z,98586.59
2022-10-03T04:42:31.383Z,98592.38
2022-10-03T04:47:44.068Z,98579.28
2022-10-03T04:52:57.972Z,98576.28
2022-10-03T04:58:17.137Z,98573.56
2022-10-03T05:03:28.907Z,98574.56
2022-10-03T05:08:42.925Z,98582.28
2022-10-03T05:13:59.974Z,98575.19
2022-10-03T05:19:25.928Z,98563.63
2022-10-03T05:24:38.360Z,98559.44
2022-10-03T05:29:52.329Z,98556.00
2022-10-03T05:35:20.864Z,98559.69
2022-10-03T05:40:27.138Z,98559.69
2022-10-03T05:45:46.423Z,98567.25
2022-10-03T05:51:39.809Z,98572.22
2022-10-03T05:57:11.341Z,98581.16
2022-10-03T06:03:00.574Z,98576.56
2022-10-03T06:08:39.841Z,98584.03
2022-10-03T06:14:10.073Z,98564.69
2022-10-03T06:19:29.342Z,98560.59
2022-10-03T06:25:07.280Z,98558.72
2022-10-03T06:30:22.121Z,98568.34
2022-10-03T06:36:06.531Z,98565.84
2022-10-03T06:41:35.331Z,98562.25
2022-10-03T06:47:04.850Z,98564.66
2022-10-03T06:52:35.643Z,98585.31
2022-10-03T06:58:27.386Z,98576.31
2022-10-03T07:04:12.264Z,98571.03
2022-10-03T07:09:45.872Z,98564.22
2022-10-03T07:15:17.808Z,98558.50
2022-10-03T07:20:57.108Z,98557.28
2022-10-03T07:26:41.623Z,98547.47
2022-10-03T07:32:00.771Z,98548.41
2022-10-03T07:37:53.662Z,98559.16
2022-10-03T07:43:37.931Z,98565.66
2022-10-03T07:49:05.513Z,98557.44
2022-10-03T07:54:48.633Z,98561.91
2022-10-03T08:00:12.199Z,98552.97
2022-10-03T08:05:37.368Z,98548.72
2022-10-03T08:11:08.121Z,98554.59
2022-10-03T08:16:32.448Z,98540.09
2022-10-03T08:21:54.157Z,98544.09
2022-10-03T08:27:12.147Z,98537.13
2022-10-03T08:33:21.922Z,98538.75
2022-10-03T08:38:55.917Z,98534.88
2022-10-03T08:44:30.241Z,98531.69
2022-10-03T08:50:04.411Z,98531.16
2022-10-03T08:55:49.843Z,98523.63
2022-10-03T09:01:38.034Z,98523.63
2022-10-03T09:07:17.214Z,98527.84
2022-10-03T09:12:43.240Z,98524.09
2022-10-03T09:18:27.232Z,98523.50
2022-10-03T09:23:58.088Z,98519.53
2022-10-03T09:29:38.015Z,98515.75
2022-10-03T09:35:16.455Z,98517.94
2022-10-03T09:40:59.596Z,98512.53
2022-10-03T09:46:34.487Z,98517.09
2022-10-03T09:51:52.777Z,98532.09
2022-10-03T09:57:22.773Z,98527.91
2022-10-03T10:03:15.478Z,98512.56
2022-10-03T10:08:45.256Z,98507.00
2022-10-03T10:14:25.502Z,98512.75
2022-10-03T10:19:52.889Z,98502.41
2022-10-03T10:25:33.044Z,98507.94
2022-10-03T10:31:02.335Z,98492.97
2022-10-03T10:36:57.279Z,98495.41
2022-10-03T10:42:44.209Z,98489.00
2022-10-03T10:48:22.951Z,98494.94
2022-10-03T10:54:02.813Z,98506.97
2022-10-03T10:59:44.741Z,98486.06
2022-10-03T11:05:34.543Z,98489.16
2022-10-03T11:10:52.558Z,98489.56
2022-10-03T11:16:55.527Z,98486.59
2022-10-03T11:22:32.479Z,98474.41
2022-10-03T11:28:11.732Z,98465.88
2022-10-03T11:33:59.970Z,98464.50
2022-10-03T11:39:07.081Z,98457.84
2022-10-03T11:44:20.651Z,98451.13
2022-10-03T11:49:59.040Z,98462.13
2022-10-03T11:55:20.625Z,98464.06
2022-10-03T12:00:25.391Z,98455.53
2022-10-03T12:05:47.361Z,98461.63
2022-10-03T12:10:58.384Z,98452.28
2022-10-03T12:16:03.651Z,98457.00
2022-10-03T12:21:12.682Z,98461.28
2022-10-03T12:26:29.374Z,98462.13
2022-10-03T12:31:37.431Z,98441.50
2022-10-03T12:36:54.345Z,98450.41
2022-10-03T12:42:15.516Z,98445.00
2022-10-03T12:47:55.462Z,98446.09
2022-10-03T12:53:28.378Z,98440.13
2022-10-03T12:58:42.932Z,98424.84
2022-10-03T13:03:54.067Z,98428.94
2022-10-03T13:09:12.259Z,98420.63
2022-10-03T13:14:33.158Z,98429.91
2022-10-03T13:19:48.735Z,98426.31
2022-10-03T13:25:01.565Z,98427.66
2022-10-03T13:30:15.193Z,98417.47
2022-10-03T13:35:53.120Z,98420.56
2022-10-03T13:41:07.144Z,98429.91
2022-10-03T13:46:16.131Z,98422.91
2022-10-03T13:51:29.784Z,98420.41
2022-10-03T13:56:46.909Z,98415.94
2022-10-03T14:02:00.559Z,98404.25
2022-10-03T14:07:14.893Z,98398.06
2022-10-03T14:12:51.097Z,98400.59
2022-10-03T14:18:02.221Z,98392.47
2022-10-03T14:23:26.497Z,98389.72
2022-10-03T14:28:38.566Z,98398.97
2022-10-03T14:33:48.309Z,98400.19
2022-10-03T14:39:05.653Z,98389.19
2022-10-03T14:44:14.702Z,98394.16
2022-10-03T14:49:52.330Z,98397.50
2022-10-03T14:54:52.384Z,98402.75
2022-10-03T14:59:58.509Z,98404.78
2022-10-03T15:05:09.438Z,98391.72
2022-10-03T15:10:17.293Z,98400.06
2022-10-03T15:15:26.050Z,98403.81
2022-10-03T15:20:35.009Z,98405.78
2022-10-03T15:25:41.331Z,98413.97
2022-10-03T15:30:47.573Z,98412.31
2022-10-03T15:35:55.561Z,98428.31
2022-10-03T15:41:10.548Z,98436.22
2022-10-03T15:46:32.975Z,98438.00
2022-10-03T15:51:39.836Z,98452.75
2022-10-03T15:56:45.145Z,98469.50
2022-10-03T16:01:55.630Z,98492.97
2022-10-03T16:07:04.426Z,98510.06
2022-10-03T16:12:39.254Z,98533.31
2022-10-03T16:17:49.671Z,98536.72
2022-10-03T16:22:56.159Z,98544.75
2022-10-03T16:28:04.462Z,98544.47
2022-10-03T16:33:19.359Z,98545.09
2022-10-03T16:38:25.777Z,98524.22
2022-10-03T16:43:33.031Z,98520.81
2022-10-03T16:48:55.883Z,98499.06
2022-10-03T16:53:59.833Z,98515.13
2022-10-03T16:59:07.667Z,98517.31
2022-10-03T17:04:22.766Z,98523.81
2022-10-03T17:09:32.589Z,98534.63
2022-10-03T17:14:42.059Z,98536.00
2022-10-03T17:19:58.891Z,98539.72
2022-10-03T17:25:06.764Z,98542.28
2022-10-03T17:30:28.704Z,98544.09
2022-10-03T17:35:41.651Z,98564.94
2022-10-03T17:40:57.187Z,98557.38
2022-10-03T17:46:07.971Z,98571.34
2022-10-03T17:51:34.491Z,98577.66
2022-10-03T17:56:44.748Z,98583.88
2022-10-03T18:01:53.374Z,98581.63
2022-10-03T18:07:02.901Z,98584.97
2022-10-03T18:12:30.263Z,98602.75
2022-10-03T18:17:46.547Z,98606.50
2022-10-03T18:23:00.069Z,98608.53
2022-10-03T18:28:14.613Z,98609.41
2022-10-03T18:33:22.981Z,98604.97
2022-10-03T18:38:30.718Z,98617.34
2022-10-03T18:43:44.955Z,98607.00
2022-10-03T18:49:28.191Z,98602.69
2022-10-03T18:54:35.714Z,98601.69
2022-10-03T18:59:48.861Z,98602.63
2022-10-03T19:04:57.567Z,98599.81
2022-10-03T19:10:33.001Z,98603.78
2022-10-03T19:15:50.528Z,98605.34
2022-10-03T19:20:57.042Z,98608.06
2022-10-03T19:26:11.458Z,98603.69
2022-10-03T19:31:21.991Z,98599.34
2022-10-03T19:36:30.476Z,98600.91
2022-10-03T19:41:39.491Z,98603.63
2022-10-03T19:47:02.847Z,98602.13
2022-10-03T19:52:18.519Z,98608.28
2022-10-03T19:57:28.227Z,98607.59
2022-10-03T20:02:31.969Z,98600.50
2022-10-03T20:08:01.585Z,98596.19
2022-10-03T20:13:06.611Z,98606.72
2022-10-03T20:18:18.486Z,98610.25
2022-10-03T20:23:25.513Z,98604.09
2022-10-03T20:28:53.605Z,98618.81
2022-10-03T20:34:00.733Z,98625.69
2022-10-03T20:39:13.467Z,98624.78
2022-10-03T20:44:29.659Z,98620.47
2022-10-03T20:49:36.289Z,98612.56
2022-10-03T20:54:51.279Z,98615.19
2022-10-03T21:00:05.008Z,98614.47
2022-10-03T21:05:21.357Z,98625.13
2022-10-03T21:10:31.140Z,98628.78
2022-10-03T21:15:47.657Z,98632.25
2022-10-03T21:21:02.329Z,98640.81
2022-10-03T21:26:09.734Z,98632.97
2022-10-03T21:31:40.372Z,98643.50
2022-10-03T21:36:52.648Z,98631.41
2022-10-03T21:42:08.465Z,98636.66
2022-10-03T21:47:26.087Z,98635.88
2022-10-03T21:52:41.623Z,98628.94
2022-10-03T21:57:58.453Z,98620.94
2022-10-03T22:03:12.965Z,98630.59
2022-10-03T22:08:23.020Z,98621.34
2022-10-03T22:13:32.079Z,98622.38
2022-10-03T22:19:01.155Z,98622.34
2022-10-03T22:24:12.355Z,98627.66
2022-10-03T22:29:24.670Z,98631.03
2022-10-03T22:34:40.914Z,98633.53
2022-10-03T22:39:48.503Z,98640.53
2022-10-03T22:44:54.673Z,98650.16
2022-10-03T22:50:03.681Z,98659.66
2022-10-03T22:55:10.261Z,98669.28
2022-10-03T23:00:17.794Z,98661.47
2022-10-03T23:05:37.632Z,98659.75
2022-10-03T23:10:49.839Z,98665.22
2022-10-03T23:15:59.809Z,98669.66
2022-10-03T23:21:14.127Z,98673.09
2022-10-03T23:27:14.376Z,98669.47
2022-10-03T23:32:54.190Z,98660.25
2022-10-03T23:37:59.893Z,98649.94
2022-10-03T23:43:23.157Z,98650.97
2022-10-03T23:48:29.072Z,98649.28
2022-10-03T23:53:38.805Z,98651.72
2022-10-03T23:58:42.298Z,98653.72
